Kingstown, North Carolina
Current Conditions -  °F | °C
As of 7:55 AM on Saturday 25 Oct 2014 (Local Time) from KEHO Reporting Station
Clear Clear  
Wind Chill: 36°   Ceiling: Unl
Heat Index: 36°   Visibility: 7mi
Dew Point: 35°   Wind: 0mph
Humidity: 97%   Direction: NA
Pressure: 30.04"   Gusts: NA
Location:  35.3693°N, 81.5992°W
Report Text: KEHO 251155Z AUTO 00000KT 7SM CLR 02/02 A3004 RMK AO2 T00200015 10063 20017
Loading
Personal Weather Stations






























Interactive Weather Map
Tropical Storm Tracking
New forecast layout! Learn more

10-Day Weather Forecast

Advertisements
Track Severe Weather on mobile